sensor_id;sensor_type;location;lat;lon;timestamp;pressure;altitude;pressure_sealevel;temperature;humidity
74905;BME280;63465;50.862;6.220;2023-07-28T00:02:05;99083.81;;;17.06;100.00
74905;BME280;63465;50.862;6.220;2023-07-28T00:04:30;99091.72;;;17.07;100.00
74905;BME280;63465;50.862;6.220;2023-07-28T00:06:56;99097.44;;;17.14;100.00
74905;BME280;63465;50.862;6.220;2023-07-28T00:09:21;99092.78;;;17.16;100.00
74905;BME280;63465;50.862;6.220;2023-07-28T00:11:48;99098.00;;;17.18;100.00
74905;BME280;63465;50.862;6.220;2023-07-28T00:14:13;99091.66;;;17.19;100.00
74905;BME280;63465;50.862;6.220;2023-07-28T00:16:39;99093.25;;;17.21;100.00
74905;BME280;63465;50.862;6.220;2023-07-28T00:19:04;99095.25;;;17.29;100.00
74905;BME280;63465;50.862;6.220;2023-07-28T00:21:30;99097.47;;;17.24;100.00
74905;BME280;63465;50.862;6.220;2023-07-28T00:23:55;99087.34;;;17.27;100.00
74905;BME280;63465;50.862;6.220;2023-07-28T00:26:20;99081.31;;;17.35;100.00
74905;BME280;63465;50.862;6.220;2023-07-28T00:28:46;99082.28;;;17.34;100.00
74905;BME280;63465;50.862;6.220;2023-07-28T00:31:11;99086.22;;;17.30;100.00
74905;BME280;63465;50.862;6.220;2023-07-28T00:33:37;99081.34;;;17.14;100.00
74905;BME280;63465;50.862;6.220;2023-07-28T00:36:03;99081.09;;;17.17;100.00
74905;BME280;63465;50.862;6.220;2023-07-28T00:38:28;99076.28;;;17.21;100.00
74905;BME280;63465;50.862;6.220;2023-07-28T00:40:53;99075.75;;;17.27;100.00
74905;BME280;63465;50.862;6.220;2023-07-28T00:43:18;99080.69;;;17.22;100.00
74905;BME280;63465;50.862;6.220;2023-07-28T00:45:44;99075.59;;;17.19;100.00
74905;BME280;63465;50.862;6.220;2023-07-28T00:48:12;99079.72;;;17.23;100.00
74905;BME280;63465;50.862;6.220;2023-07-28T00:50:40;99079.72;;;17.23;100.00
74905;BME280;63465;50.862;6.220;2023-07-28T00:53:06;99072.06;;;17.18;100.00
74905;BME280;63465;50.862;6.220;2023-07-28T00:55:32;99075.59;;;17.19;100.00
74905;BME280;63465;50.862;6.220;2023-07-28T00:57:58;99076.28;;;17.21;100.00
74905;BME280;63465;50.862;6.220;2023-07-28T01:00:23;99072.63;;;17.22;100.00
74905;BME280;63465;50.862;6.220;2023-07-28T01:02:49;99082.13;;;17.26;100.00
74905;BME280;63465;50.862;6.220;2023-07-28T01:05:14;99075.75;;;17.27;100.00
74905;BME280;63465;50.862;6.220;2023-07-28T01:07:59;99077.34;;;17.29;100.00
74905;BME280;63465;50.862;6.220;2023-07-28T01:10:31;99063.50;;;17.24;100.00
74905;BME280;63465;50.862;6.220;2023-07-28T01:12:58;99068.44;;;17.29;100.00
74905;BME280;63465;50.862;6.220;2023-07-28T01:15:23;99063.34;;;17.26;100.00
74905;BME280;63465;50.862;6.220;2023-07-28T01:17:49;99065.91;;;17.27;100.00
74905;BME280;63465;50.862;6.220;2023-07-28T01:20:14;99065.91;;;17.27;100.00
74905;BME280;63465;50.862;6.220;2023-07-28T01:23:08;99063.78;;;17.31;100.00
74905;BME280;63465;50.862;6.220;2023-07-28T01:28:10;99076.66;;;17.37;100.00
74905;BME280;63465;50.862;6.220;2023-07-28T01:30:38;99070.72;;;17.34;100.00
74905;BME280;63465;50.862;6.220;2023-07-28T01:33:06;99074.56;;;17.41;100.00
74905;BME280;63465;50.862;6.220;2023-07-28T01:35:32;99071.59;;;17.44;100.00
74905;BME280;63465;50.862;6.220;2023-07-28T01:37:58;99071.03;;;17.40;100.00
74905;BME280;63465;50.862;6.220;2023-07-28T01:40:23;99068.91;;;17.44;100.00
74905;BME280;63465;50.862;6.220;2023-07-28T01:42:48;99066.97;;;17.46;100.00
74905;BME280;63465;50.862;6.220;2023-07-28T01:45:14;99068.91;;;17.44;100.00
74905;BME280;63465;50.862;6.220;2023-07-28T01:47:39;99067.91;;;17.35;100.00
74905;BME280;63465;50.862;6.220;2023-07-28T01:50:05;99067.03;;;17.35;100.00
74905;BME280;63465;50.862;6.220;2023-07-28T01:52:30;99073.97;;;17.37;100.00
74905;BME280;63465;50.862;6.220;2023-07-28T01:54:55;99068.75;;;17.36;100.00
74905;BME280;63465;50.862;6.220;2023-07-28T01:57:20;99072.00;;;17.39;100.00
74905;BME280;63465;50.862;6.220;2023-07-28T01:59:46;99074.97;;;17.36;100.00
74905;BME280;63465;50.862;6.220;2023-07-28T02:02:11;99068.97;;;17.23;100.00
74905;BME280;63465;50.862;6.220;2023-07-28T02:04:37;99067.41;;;17.20;100.00
74905;BME280;63465;50.862;6.220;2023-07-28T02:07:02;99074.47;;;17.21;100.00
74905;BME280;63465;50.862;6.220;2023-07-28T02:09:27;99065.97;;;17.16;100.00
74905;BME280;63465;50.862;6.220;2023-07-28T02:11:53;99074.34;;;17.23;100.00
74905;BME280;63465;50.862;6.220;2023-07-28T02:14:18;99068.66;;;17.16;100.00
74905;BME280;63465;50.862;6.220;2023-07-28T02:16:44;99066.38;;;17.11;100.00
74905;BME280;63465;50.862;6.220;2023-07-28T02:19:09;99065.25;;;17.14;100.00
74905;BME280;63465;50.862;6.220;2023-07-28T02:21:34;99072.91;;;17.19;100.00
74905;BME280;63465;50.862;6.220;2023-07-28T02:24:00;99064.16;;;17.17;100.00
74905;BME280;63465;50.862;6.220;2023-07-28T02:26:25;99066.22;;;17.13;100.00
74905;BME280;63465;50.862;6.220;2023-07-28T02:28:51;99064.88;;;17.19;100.00
74905;BME280;63465;50.862;6.220;2023-07-28T02:31:16;99066.31;;;17.23;100.00
74905;BME280;63465;50.862;6.220;2023-07-28T02:33:41;99060.34;;;17.19;100.00
74905;BME280;63465;50.862;6.220;2023-07-28T02:36:07;99063.03;;;17.19;100.00
74905;BME280;63465;50.862;6.220;2023-07-28T02:38:32;99062.75;;;17.22;100.00
74905;BME280;63465;50.862;6.220;2023-07-28T02:40:57;99067.53;;;17.19;100.00
74905;BME280;63465;50.862;6.220;2023-07-28T02:43:23;99062.19;;;17.19;100.00
74905;BME280;63465;50.862;6.220;2023-07-28T02:45:57;99066.56;;;17.20;100.00
74905;BME280;63465;50.862;6.220;2023-07-28T02:48:23;99067.00;;;17.25;100.00
74905;BME280;63465;50.862;6.220;2023-07-28T02:50:50;99070.66;;;17.24;100.00
74905;BME280;63465;50.862;6.220;2023-07-28T02:53:15;99075.59;;;17.19;100.00
74905;BME280;63465;50.862;6.220;2023-07-28T02:55:45;99073.47;;;17.22;100.00
74905;BME280;63465;50.862;6.220;2023-07-28T02:58:11;99077.03;;;17.23;100.00
74905;BME280;63465;50.862;6.220;2023-07-28T03:00:40;99081.00;;;17.28;100.00
74905;BME280;63465;50.862;6.220;2023-07-28T03:03:08;99083.53;;;17.30;100.00
74905;BME280;63465;50.862;6.220;2023-07-28T03:05:35;99086.22;;;17.30;100.00
74905;BME280;63465;50.862;6.220;2023-07-28T03:08:01;99086.22;;;17.30;100.00
74905;BME280;63465;50.862;6.220;2023-07-28T03:10:26;99091.44;;;17.32;100.00
74905;BME280;63465;50.862;6.220;2023-07-28T03:12:51;99086.09;;;17.32;100.00
74905;BME280;63465;50.862;6.220;2023-07-28T03:15:17;99086.81;;;17.34;100.00
74905;BME280;63465;50.862;6.220;2023-07-28T03:17:42;99101.91;;;17.35;100.00
74905;BME280;63465;50.862;6.220;2023-07-28T03:20:08;99094.41;;;17.28;100.00
74905;BME280;63465;50.862;6.220;2023-07-28T03:22:33;99092.31;;;17.32;100.00
74905;BME280;63465;50.862;6.220;2023-07-28T03:24:59;99089.78;;;17.31;100.00
74905;BME280;63465;50.862;6.220;2023-07-28T03:27:24;99095.13;;;17.31;100.00
74905;BME280;63465;50.862;6.220;2023-07-28T03:29:50;99107.41;;;17.33;100.00
74905;BME280;63465;50.862;6.220;2023-07-28T03:32:15;99106.56;;;17.33;100.00
74905;BME280;63465;50.862;6.220;2023-07-28T03:34:41;99105.00;;;17.30;100.00
74905;BME280;63465;50.862;6.220;2023-07-28T03:37:06;99110.81;;;17.35;100.00
74905;BME280;63465;50.862;6.220;2023-07-28T03:39:31;99108.94;;;17.26;100.00
74905;BME280;63465;50.862;6.220;2023-07-28T03:41:57;99105.25;;;17.27;100.00
74905;BME280;63465;50.862;6.220;2023-07-28T03:44:23;99102.44;;;17.28;100.00
74905;BME280;63465;50.862;6.220;2023-07-28T03:46:48;99094.25;;;17.30;100.00
74905;BME280;63465;50.862;6.220;2023-07-28T03:49:14;99103.72;;;17.24;100.00
74905;BME280;63465;50.862;6.220;2023-07-28T03:51:39;99102.84;;;17.24;100.00
74905;BME280;63465;50.862;6.220;2023-07-28T03:54:04;99104.28;;;17.28;100.00
74905;BME280;63465;50.862;6.220;2023-07-28T03:56:30;99108.66;;;17.29;100.00
74905;BME280;63465;50.862;6.220;2023-07-28T03:58:55;99112.19;;;17.29;100.00
74905;BME280;63465;50.862;6.220;2023-07-28T04:01:20;99107.09;;;17.26;100.00
74905;BME280;63465;50.862;6.220;2023-07-28T04:03:47;99112.31;;;17.28;100.00
74905;BME280;63465;50.862;6.220;2023-07-28T04:06:12;99106.53;;;17.23;100.00
74905;BME280;63465;50.862;6.220;2023-07-28T04:08:38;99109.06;;;17.24;100.00
74905;BME280;63465;50.862;6.220;2023-07-28T04:11:04;99101.59;;;17.28;100.00
74905;BME280;63465;50.862;6.220;2023-07-28T04:13:29;99110.34;;;17.30;100.00
74905;BME280;63465;50.862;6.220;2023-07-28T04:15:54;99105.13;;;17.28;100.00
74905;BME280;63465;50.862;6.220;2023-07-28T04:18:20;99113.44;;;17.25;100.00
74905;BME280;63465;50.862;6.220;2023-07-28T04:20:45;99115.72;;;17.30;100.00
74905;BME280;63465;50.862;6.220;2023-07-28T04:23:11;99114.03;;;17.29;100.00
74905;BME280;63465;50.862;6.220;2023-07-28T04:25:36;99114.47;;;17.34;100.00
74905;BME280;63465;50.862;6.220;2023-07-28T04:28:02;99112.75;;;17.33;100.00
74905;BME280;63465;50.862;6.220;2023-07-28T04:30:27;99115.03;;;17.38;100.00
74905;BME280;63465;50.862;6.220;2023-07-28T04:32:52;99115.19;;;17.36;100.00
74905;BME280;63465;50.862;6.220;2023-07-28T04:35:18;99119.00;;;17.34;100.00
74905;BME280;63465;50.862;6.220;2023-07-28T04:37:43;99119.72;;;17.36;100.00
74905;BME280;63465;50.862;6.220;2023-07-28T04:40:09;99118.13;;;17.33;100.00
74905;BME280;63465;50.862;6.220;2023-07-28T04:42:34;99122.53;;;17.34;100.00
74905;BME280;63465;50.862;6.220;2023-07-28T04:45:01;99126.38;;;17.41;100.00
74905;BME280;63465;50.862;6.220;2023-07-28T04:47:26;99128.78;;;17.44;100.00
74905;BME280;63465;50.862;6.220;2023-07-28T04:49:51;99126.50;;;17.40;100.00
74905;BME280;63465;50.862;6.220;2023-07-28T04:52:17;99125.50;;;17.41;100.00
74905;BME280;63465;50.862;6.220;2023-07-28T04:54:42;99134.56;;;17.40;100.00
74905;BME280;63465;50.862;6.220;2023-07-28T04:57:07;99137.09;;;17.41;100.00
74905;BME280;63465;50.862;6.220;2023-07-28T04:59:32;99140.75;;;17.40;100.00
74905;BME280;63465;50.862;6.220;2023-07-28T05:01:58;99144.88;;;17.44;100.00
74905;BME280;63465;50.862;6.220;2023-07-28T05:04:23;99141.19;;;17.45;100.00
74905;BME280;63465;50.862;6.220;2023-07-28T05:06:48;99145.59;;;17.46;100.00
74905;BME280;63465;50.862;6.220;2023-07-28T05:09:14;99151.53;;;17.50;100.00
74905;BME280;63465;50.862;6.220;2023-07-28T05:11:39;99150.97;;;17.46;100.00
74905;BME280;63465;50.862;6.220;2023-07-28T05:14:04;99150.56;;;17.51;100.00
74905;BME280;63465;50.862;6.220;2023-07-28T05:16:31;99157.22;;;17.57;100.00
74905;BME280;63465;50.862;6.220;2023-07-28T05:18:57;99157.38;;;17.55;100.00
74905;BME280;63465;50.862;6.220;2023-07-28T05:21:22;99157.22;;;17.57;100.00
74905;BME280;63465;50.862;6.220;2023-07-28T05:23:47;99156.34;;;17.56;100.00
74905;BME280;63465;50.862;6.220;2023-07-28T05:26:13;99163.25;;;17.49;100.00
74905;BME280;63465;50.862;6.220;2023-07-28T05:28:38;99156.97;;;17.60;100.00
74905;BME280;63465;50.862;6.220;2023-07-28T05:31:04;99161.72;;;17.56;100.00
74905;BME280;63465;50.862;6.220;2023-07-28T05:33:30;99161.84;;;17.55;100.00
74905;BME280;63465;50.862;6.220;2023-07-28T05:36:00;99170.16;;;17.52;100.00
74905;BME280;63465;50.862;6.220;2023-07-28T05:38:26;99167.44;;;17.63;100.00
74905;BME280;63465;50.862;6.220;2023-07-28T05:40:58;99172.94;;;17.61;100.00
74905;BME280;63465;50.862;6.220;2023-07-28T05:43:25;99174.34;;;17.65;100.00
74905;BME280;63465;50.862;6.220;2023-07-28T05:45:51;99176.34;;;17.73;100.00
74905;BME280;63465;50.862;6.220;2023-07-28T05:48:16;99174.13;;;17.78;100.00
74905;BME280;63465;50.862;6.220;2023-07-28T05:50:41;99177.13;;;17.85;100.00
74905;BME280;63465;50.862;6.220;2023-07-28T05:53:07;99177.53;;;17.80;100.00
74905;BME280;63465;50.862;6.220;2023-07-28T05:55:32;99184.25;;;17.96;100.00
74905;BME280;63465;50.862;6.220;2023-07-28T05:57:58;99189.63;;;17.96;100.00
74905;BME280;63465;50.862;6.220;2023-07-28T06:00:23;99190.25;;;18.09;100.00
74905;BME280;63465;50.862;6.220;2023-07-28T06:02:49;99188.53;;;18.08;100.00
74905;BME280;63465;50.862;6.220;2023-07-28T06:05:14;99188.38;;;18.00;100.00
74905;BME280;63465;50.862;6.220;2023-07-28T06:07:40;99186.88;;;18.07;100.00
74905;BME280;63465;50.862;6.220;2023-07-28T06:10:06;99192.25;;;18.17;100.00
74905;BME280;63465;50.862;6.220;2023-07-28T06:12:32;99195.06;;;18.15;100.00
74905;BME280;63465;50.862;6.220;2023-07-28T06:14:57;99198.06;;;18.22;100.00
74905;BME280;63465;50.862;6.220;2023-07-28T06:17:22;99197.66;;;18.27;100.00
74905;BME280;63465;50.862;6.220;2023-07-28T06:19:48;99205.00;;;18.25;100.00
74905;BME280;63465;50.862;6.220;2023-07-28T06:22:13;99196.25;;;18.23;100.00
74905;BME280;63465;50.862;6.220;2023-07-28T06:24:38;99198.19;;;18.21;100.00
74905;BME280;63465;50.862;6.220;2023-07-28T06:27:04;99189.59;;;18.27;100.00
74905;BME280;63465;50.862;6.220;2023-07-28T06:29:33;99195.97;;;18.35;100.00
74905;BME280;63465;50.862;6.220;2023-07-28T06:31:58;99200.47;;;18.25;100.00
74905;BME280;63465;50.862;6.220;2023-07-28T06:34:24;99197.91;;;18.24;100.00
74905;BME280;63465;50.862;6.220;2023-07-28T06:36:49;99204.44;;;18.31;100.00
74905;BME280;63465;50.862;6.220;2023-07-28T06:39:14;99204.88;;;18.36;100.00
74905;BME280;63465;50.862;6.220;2023-07-28T06:41:40;99208.44;;;18.36;100.00
74905;BME280;63465;50.862;6.220;2023-07-28T06:44:05;99205.63;;;18.38;100.00
74905;BME280;63465;50.862;6.220;2023-07-28T06:46:31;99199.91;;;18.31;100.00
74905;BME280;63465;50.862;6.220;2023-07-28T06:48:56;99211.69;;;18.40;100.00
74905;BME280;63465;50.862;6.220;2023-07-28T06:51:21;99218.03;;;18.39;100.00
74905;BME280;63465;50.862;6.220;2023-07-28T06:53:47;99214.09;;;18.43;100.00
74905;BME280;63465;50.862;6.220;2023-07-28T06:56:12;99218.13;;;18.68;100.00
74905;BME280;63465;50.862;6.220;2023-07-28T06:58:37;99217.97;;;18.70;100.00
74905;BME280;63465;50.862;6.220;2023-07-28T07:01:02;99223.22;;;18.81;100.00
74905;BME280;63465;50.862;6.220;2023-07-28T07:03:28;99216.63;;;18.85;100.00
74905;BME280;63465;50.862;6.220;2023-07-28T07:05:53;99222.09;;;18.84;100.00
74905;BME280;63465;50.862;6.220;2023-07-28T07:08:18;99224.34;;;18.69;100.00
74905;BME280;63465;50.862;6.220;2023-07-28T07:10:48;99218.97;;;18.59;100.00
74905;BME280;63465;50.862;6.220;2023-07-28T07:13:15;99242.44;;;18.67;100.00
74905;BME280;63465;50.862;6.220;2023-07-28T07:15:40;99243.56;;;18.74;100.00
74905;BME280;63465;50.862;6.220;2023-07-28T07:18:07;99249.44;;;18.89;100.00
74905;BME280;63465;50.862;6.220;2023-07-28T07:20:36;99244.72;;;18.81;100.00
74905;BME280;63465;50.862;6.220;2023-07-28T07:23:01;99247.22;;;18.63;100.00
74905;BME280;63465;50.862;6.220;2023-07-28T07:25:27;99253.03;;;18.59;100.00
74905;BME280;63465;50.862;6.220;2023-07-28T07:27:52;99248.66;;;18.67;100.00
74905;BME280;63465;50.862;6.220;2023-07-28T07:30:17;99251.22;;;18.69;100.00
74905;BME280;63465;50.862;6.220;2023-07-28T07:32:43;99261.84;;;18.80;100.00
74905;BME280;63465;50.862;6.220;2023-07-28T07:35:08;99253.47;;;18.64;100.00
74905;BME280;63465;50.862;6.220;2023-07-28T07:37:34;99250.09;;;18.71;100.00
74905;BME280;63465;50.862;6.220;2023-07-28T07:39:59;99249.72;;;18.86;100.00
74905;BME280;63465;50.862;6.220;2023-07-28T07:42:27;99251.28;;;18.88;100.00
74905;BME280;63465;50.862;6.220;2023-07-28T07:44:52;99244.78;;;19.30;100.00
74905;BME280;63465;50.862;6.220;2023-07-28T07:47:17;99243.91;;;19.59;100.00
74905;BME280;63465;50.862;6.220;2023-07-28T07:49:43;99231.09;;;19.90;100.00
74905;BME280;63465;50.862;6.220;2023-07-28T07:52:08;99210.81;;;19.96;100.00
74905;BME280;63465;50.862;6.220;2023-07-28T07:54:35;99220.84;;;20.04;100.00
74905;BME280;63465;50.862;6.220;2023-07-28T07:57:01;99214.03;;;20.09;100.00
74905;BME280;63465;50.862;6.220;2023-07-28T07:59:26;99227.13;;;19.94;100.00
74905;BME280;63465;50.862;6.220;2023-07-28T08:01:55;99221.09;;;20.10;100.00
74905;BME280;63465;50.862;6.220;2023-07-28T08:04:21;99222.31;;;19.88;100.00
74905;BME280;63465;50.862;6.220;2023-07-28T08:06:46;99220.25;;;20.10;100.00
74905;BME280;63465;50.862;6.220;2023-07-28T08:09:12;99212.41;;;20.26;100.00
74905;BME280;63465;50.862;6.220;2023-07-28T08:11:39;99214.13;;;20.18;100.00
74905;BME280;63465;50.862;6.220;2023-07-28T08:14:04;99218.13;;;20.41;100.00
74905;BME280;63465;50.862;6.220;2023-07-28T08:16:29;99207.16;;;20.25;100.00
74905;BME280;63465;50.862;6.220;2023-07-28T08:18:55;99213.13;;;19.81;100.00
74905;BME280;63465;50.862;6.220;2023-07-28T08:21:20;99212.78;;;20.04;100.00
74905;BME280;63465;50.862;6.220;2023-07-28T08:23:45;99221.53;;;20.16;100.00
74905;BME280;63465;50.862;6.220;2023-07-28T08:26:11;99223.84;;;20.28;100.00
74905;BME280;63465;50.862;6.220;2023-07-28T08:28:36;99225.56;;;20.29;100.00
74905;BME280;63465;50.862;6.220;2023-07-28T08:31:01;99212.69;;;21.15;100.00
74905;BME280;63465;50.862;6.220;2023-07-28T08:33:28;99209.63;;;20.36;100.00
74905;BME280;63465;50.862;6.220;2023-07-28T08:35:54;99217.28;;;20.13;100.00
74905;BME280;63465;50.862;6.220;2023-07-28T08:38:19;99219.41;;;20.09;100.00
74905;BME280;63465;50.862;6.220;2023-07-28T08:40:44;99235.34;;;19.93;100.00
74905;BME280;63465;50.862;6.220;2023-07-28T08:43:10;99235.25;;;19.85;100.00
74905;BME280;63465;50.862;6.220;2023-07-28T08:45:36;99241.72;;;19.92;100.00
74905;BME280;63465;50.862;6.220;2023-07-28T08:48:01;99256.53;;;20.16;100.00
74905;BME280;63465;50.862;6.220;2023-07-28T08:50:26;99237.88;;;20.32;100.00
74905;BME280;63465;50.862;6.220;2023-07-28T08:52:52;99250.84;;;20.19;100.00
74905;BME280;63465;50.862;6.220;2023-07-28T08:55:17;99242.09;;;20.07;100.00
74905;BME280;63465;50.862;6.220;2023-07-28T08:57:42;99245.63;;;20.17;100.00
74905;BME280;63465;50.862;6.220;2023-07-28T09:00:12;99235.91;;;20.34;100.00
74905;BME280;63465;50.862;6.220;2023-07-28T09:02:40;99230.22;;;21.01;100.00
74905;BME280;63465;50.862;6.220;2023-07-28T09:05:05;99222.44;;;20.98;100.00
74905;BME280;63465;50.862;6.220;2023-07-28T09:07:35;99231.53;;;21.33;100.00
74905;BME280;63465;50.862;6.220;2023-07-28T09:10:01;99219.28;;;21.57;100.00
74905;BME280;63465;50.862;6.220;2023-07-28T09:12:27;99232.22;;;20.81;100.00
74905;BME280;63465;50.862;6.220;2023-07-28T09:14:56;99233.19;;;20.34;100.00
74905;BME280;63465;50.862;6.220;2023-07-28T09:17:21;99246.69;;;20.24;100.00
74905;BME280;63465;50.862;6.220;2023-07-28T09:19:54;99260.66;;;20.10;100.00
74905;BME280;63465;50.862;6.220;2023-07-28T09:22:20;99267.56;;;20.22;100.00
74905;BME280;63465;50.862;6.220;2023-07-28T09:24:46;99255.06;;;20.31;100.00
74905;BME280;63465;50.862;6.220;2023-07-28T09:27:25;99250.78;;;20.66;100.00
74905;BME280;63465;50.862;6.220;2023-07-28T09:29:52;99254.97;;;20.78;100.00
74905;BME280;63465;50.862;6.220;2023-07-28T09:32:27;99239.81;;;20.95;100.00
74905;BME280;63465;50.862;6.220;2023-07-28T09:35:06;99237.47;;;20.82;100.00
74905;BME280;63465;50.862;6.220;2023-07-28T09:37:33;99228.56;;;21.62;100.00
74905;BME280;63465;50.862;6.220;2023-07-28T09:40:00;99232.09;;;21.00;100.00
74905;BME280;63465;50.862;6.220;2023-07-28T09:42:29;99233.03;;;20.63;100.00
74905;BME280;63465;50.862;6.220;2023-07-28T09:44:55;99239.56;;;20.71;100.00
74905;BME280;63465;50.862;6.220;2023-07-28T09:47:21;99239.50;;;20.98;100.00
74905;BME280;63465;50.862;6.220;2023-07-28T09:49:48;99233.03;;;21.27;100.00
74905;BME280;63465;50.862;6.220;2023-07-28T09:52:16;99229.44;;;21.63;100.00
74905;BME280;63465;50.862;6.220;2023-07-28T09:54:45;99230.44;;;21.44;100.00
74905;BME280;63465;50.862;6.220;2023-07-28T09:57:19;99221.19;;;21.64;100.00
74905;BME280;63465;50.862;6.220;2023-07-28T09:59:45;99229.63;;;21.25;100.00
74905;BME280;63465;50.862;6.220;2023-07-28T10:02:12;99229.75;;;21.60;100.00
74905;BME280;63465;50.862;6.220;2023-07-28T10:04:37;99228.69;;;21.79;100.00
74905;BME280;63465;50.862;6.220;2023-07-28T10:07:04;99221.63;;;21.78;100.00
74905;BME280;63465;50.862;6.220;2023-07-28T10:09:31;99217.31;;;22.70;100.00
74905;BME280;63465;50.862;6.220;2023-07-28T10:11:59;99214.41;;;21.86;100.00
74905;BME280;63465;50.862;6.220;2023-07-28T10:14:29;99229.03;;;22.36;100.00
74905;BME280;63465;50.862;6.220;2023-07-28T10:16:59;99236.34;;;22.18;100.00
74905;BME280;63465;50.862;6.220;2023-07-28T10:19:27;99232.00;;;22.68;100.00
74905;BME280;63465;50.862;6.220;2023-07-28T10:22:06;99227.88;;;22.13;100.00
74905;BME280;63465;50.862;6.220;2023-07-28T10:27:44;99241.44;;;22.21;100.00
74905;BME280;63465;50.862;6.220;2023-07-28T10:30:12;99235.91;;;21.96;100.00
74905;BME280;63465;50.862;6.220;2023-07-28T10:32:45;99230.75;;;21.85;100.00
74905;BME280;63465;50.862;6.220;2023-07-28T10:37:39;99242.03;;;22.06;100.00
74905;BME280;63465;50.862;6.220;2023-07-28T10:42:52;99248.00;;;21.84;100.00
74905;BME280;63465;50.862;6.220;2023-07-28T10:45:17;99237.75;;;21.96;100.00
74905;BME280;63465;50.862;6.220;2023-07-28T10:47:44;99238.34;;;21.81;100.00
74905;BME280;63465;50.862;6.220;2023-07-28T10:50:10;99248.81;;;21.40;100.00
74905;BME280;63465;50.862;6.220;2023-07-28T10:52:45;99250.97;;;21.54;100.00
74905;BME280;63465;50.862;6.220;2023-07-28T10:55:15;99242.72;;;21.38;100.00
74905;BME280;63465;50.862;6.220;2023-07-28T10:57:44;99257.22;;;21.19;100.00
74905;BME280;63465;50.862;6.220;2023-07-28T11:00:12;99244.09;;;21.60;100.00
74905;BME280;63465;50.862;6.220;2023-07-28T11:02:57;99229.78;;;23.14;100.00
74905;BME280;63465;50.862;6.220;2023-07-28T11:05:30;99220.66;;;23.23;100.00
74905;BME280;63465;50.862;6.220;2023-07-28T11:07:57;99223.88;;;22.59;100.00
74905;BME280;63465;50.862;6.220;2023-07-28T11:10:23;99234.16;;;22.21;100.00
74905;BME280;63465;50.862;6.220;2023-07-28T11:12:51;99236.53;;;22.16;100.00
74905;BME280;63465;50.862;6.220;2023-07-28T11:15:17;99236.94;;;22.03;100.00
74905;BME280;63465;50.862;6.220;2023-07-28T11:17:48;99236.31;;;21.83;100.00
74905;BME280;63465;50.862;6.220;2023-07-28T11:22:39;99246.75;;;21.52;100.00
74905;BME280;63465;50.862;6.220;2023-07-28T11:25:06;99251.38;;;21.60;100.00
74905;BME280;63465;50.862;6.220;2023-07-28T11:27:34;99260.59;;;21.75;100.00
74905;BME280;63465;50.862;6.220;2023-07-28T11:30:01;99270.03;;;21.17;100.00
74905;BME280;63465;50.862;6.220;2023-07-28T11:32:26;99271.78;;;21.08;100.00
74905;BME280;63465;50.862;6.220;2023-07-28T11:34:51;99274.31;;;21.10;100.00
74905;BME280;63465;50.862;6.220;2023-07-28T11:37:17;99276.84;;;20.93;100.00
74905;BME280;63465;50.862;6.220;2023-07-28T11:39:43;99278.38;;;20.78;100.00
74905;BME280;63465;50.862;6.220;2023-07-28T11:42:09;99278.56;;;20.94;100.00
74905;BME280;63465;50.862;6.220;2023-07-28T11:44:35;99281.91;;;21.24;100.00
74905;BME280;63465;50.862;6.220;2023-07-28T11:47:04;99270.72;;;21.55;100.00
74905;BME280;63465;50.862;6.220;2023-07-28T11:49:30;99266.31;;;21.36;100.00
74905;BME280;63465;50.862;6.220;2023-07-28T11:51:56;99260.09;;;21.53;100.00
74905;BME280;63465;50.862;6.220;2023-07-28T11:54:25;99256.38;;;21.36;100.00
74905;BME280;63465;50.862;6.220;2023-07-28T11:56:54;99252.03;;;21.88;100.00
74905;BME280;63465;50.862;6.220;2023-07-28T11:59:20;99244.09;;;22.13;100.00
74905;BME280;63465;50.862;6.220;2023-07-28T12:04:25;99231.38;;;22.05;100.00
74905;BME280;63465;50.862;6.220;2023-07-28T12:07:05;99236.03;;;22.21;100.00
74905;BME280;63465;50.862;6.220;2023-07-28T12:12:20;99231.75;;;22.10;100.00
74905;BME280;63465;50.862;6.220;2023-07-28T12:14:46;99235.69;;;21.63;100.00
74905;BME280;63465;50.862;6.220;2023-07-28T12:17:16;99235.66;;;21.81;100.00
74905;BME280;63465;50.862;6.220;2023-07-28T12:19:58;99242.94;;;21.45;100.00
74905;BME280;63465;50.862;6.220;2023-07-28T12:22:26;99246.94;;;21.41;100.00
74905;BME280;63465;50.862;6.220;2023-07-28T12:24:51;99255.44;;;21.46;100.00
74905;BME280;63465;50.862;6.220;2023-07-28T12:27:17;99250.88;;;21.46;100.00
74905;BME280;63465;50.862;6.220;2023-07-28T12:29:42;99249.13;;;21.55;100.00
74905;BME280;63465;50.862;6.220;2023-07-28T12:32:08;99247.66;;;21.87;100.00
74905;BME280;63465;50.862;6.220;2023-07-28T12:34:33;99242.94;;;21.89;100.00
74905;BME280;63465;50.862;6.220;2023-07-28T12:36:59;99245.50;;;21.90;100.00
74905;BME280;63465;50.862;6.220;2023-07-28T12:39:24;99245.63;;;22.15;100.00
74905;BME280;63465;50.862;6.220;2023-07-28T12:41:49;99250.84;;;22.08;100.00
74905;BME280;63465;50.862;6.220;2023-07-28T12:44:19;99249.09;;;21.73;100.00
74905;BME280;63465;50.862;6.220;2023-07-28T12:46:44;99243.88;;;22.06;100.00
74905;BME280;63465;50.862;6.220;2023-07-28T12:49:09;99243.63;;;21.91;100.00
74905;BME280;63465;50.862;6.220;2023-07-28T12:51:35;99241.47;;;21.95;100.00
74905;BME280;63465;50.862;6.220;2023-07-28T12:54:00;99246.03;;;22.29;100.00
74905;BME280;63465;50.862;6.220;2023-07-28T12:56:25;99241.09;;;22.50;100.00
74905;BME280;63465;50.862;6.220;2023-07-28T12:58:51;99257.47;;;22.49;100.00
74905;BME280;63465;50.862;6.220;2023-07-28T13:01:16;99256.88;;;22.79;100.00
74905;BME280;63465;50.862;6.220;2023-07-28T13:03:41;99235.84;;;22.49;100.00
74905;BME280;63465;50.862;6.220;2023-07-28T13:06:07;99247.03;;;22.62;100.00